首页
METAR-TAF:

METAR-TAF

机场 :

新伊比利亚, 路易斯安那州, 美国

纬度: 30-01-44N, 经度: 091-53-04W, 海拔: 7米

当前天气观测

该预报发布于40分钟前的10:53 UTC
风速15节,风向北转东北
温度 8°C
湿度 87%
气压 1028 hPa
能見度: 16.1公里
阴天层高于1800英尺

METAR: KARA 111053Z AUTO 02015KT 10SM OVC018 08/06 A3037 RMK AO2 SLP285 T00780056

时间: 05:33 (11:33 UTC)

预报

该预报发布于6小时和13分钟前的05:20 UTC
预报有效从11日的 06点(UTC)到 12日的 06点(UTC)
风速16节,风向北转东北
能見度: 10公里
阴天层高于1200英尺
从 11日的 1200点(UTC)
风速14节,风向北转东北
能見度: 10公里
阴天层高于3500英尺
从 11日的 1600点(UTC)
风速15节,风向东北
能見度: 10公里
天空无云

TAF: KARA 110520Z 1106/1206 02016KT P6SM OVC012 FM111200 02014KT P6SM OVC035 FM111600 05015KT P6SM SKC

超过4000个机场的气象观测和天气预报(METAR&TAF报告)。

可查询的气象台以黄色和红色小点在地图上表示。

将鼠标移到小点上方,可查看气象台名称。

然后点击查看天气观测和预报。

如需切换地图:点击带黑十字的绿色按钮放大地图;点击带横线的绿色按钮缩小地图;或者点击绿色箭头查看邻近地区的地图。


METAR-TAF: